Weather observations for the past three days for
Bogue Field Marine Corps Auxiliary Field
Imperial (Metric)
Date Time (edt) Wind (mph) Vis. (mi.) Weather Sky Cond. Temperature (ºF) Relative Humidity Wind Chill (°F) Heat Index (°F) Pressure Precipitation (in)
Air Dwpt 6 hour altimeter (in) sea level (mb) 1 hr 3 hr 6 hr
Max. Min.
04 19:51 SW 14 G 22 7.00 Fair CLR 66.9 54 72 66.9 63% 30.03 1017.3
04 18:51 SW 15 G 24 7.00 Fair CLR 69.1 52 55% 30.02 1017.0
04 17:51 SW 16 G 28 7.00 Fair CLR 70 51.1 51% 30.03 1017.2
04 15:51 S 20 G 28 7.00 Fair CLR 72 52 50% 30.05 1017.7
04 14:51 S 16 G 25 7.00 Fair CLR 71.1 51.1 49% 30.06 1018.3
04 13:51 S 16 G 24 7.00 Fair CLR 71.1 52 72 60.1 51% 30.06 1018.4
04 10:51 SW 12 7.00 Fair CLR 68 53.1 59% 30.09 1019.2
04 09:51 SW 10 7.00 Fair CLR 66.9 51.1 57% 30.09 1019.2
04 07:51 Calm 7.00 Fair CLR 60.1 51.1 60.1 46.9 72% 30.1 1019.5
04 04:51 Calm 7.00 Fair CLR 48.9 46.9 93% 30.09 1019.4
04 02:51 Calm 8.00 Fair CLR 48.9 46.9 93% 30.09 1019.1
04 01:51 Calm 8.00 Fair CLR 52 48 62.1 52 86% 30.09 1019.4
03 23:51 SW 10 8.00 Fair CLR 61 50 67% 30.1 1019.4
03 20:51 SW 9 8.00 Fair CLR 61 48 63% 30.06 1018.3
03 19:51 Vrbl 3 7.00 Fair CLR 60.8 42.8 52% 0 0.0
03 15:51 W 12 G 17 7.00 Fair CLR 66 36 33% 30.03 1017.4
03 13:51 Vrbl 6 G 18 7.00 Fair CLR 64 36 64.9 50 35% 30.07 1018.7
03 12:51 W 8 G 24 7.00 Fair CLR 62.1 35.1 37% 30.08 1019.1
03 11:51 NW 7 7.00 Fair CLR 60.1 37 42% 30.1 1019.6
03 10:51 N 7 G 24 7.00 Fair CLR 57 39.9 53% 30.09 1019.3
03 09:51 NW 13 G 18 7.00 Fair CLR 55 42.1 62% 30.09 1019.1
03 08:51 N 12 G 20 7.00 Fair CLR 52 41 66% 30.07 1018.5
03 05:51 NW 7 7.00 Fair CLR 48 46 93% 45 30 1016.4
03 04:51 W 5 5.00 Fog/Mist CLR 48 46.9 96% 47 29.99 1015.8
02 23:51 NW 5 7.00 Overcast OVC095 51.1 48.9 92% 29.91 1013.3
02 22:51 N 6 7.00 Light Rain OVC085 51.1 50 96% 29.91 1013.3
02 21:51 N 6 7.00 Overcast FEW070 OVC080 52 50 93% 29.9 1012.9
02 19:51 N 8 G 20 3.00 Light Rain Fog/Mist FEW006 OVC013 54 52 59 54 93% 29.86 1011.6
02 18:51 N 8 3.00 Rain Fog/Mist BKN008 BKN022 OVC060 55.9 54 93% 29.84 1010.8
02 17:51 N 6 5.00 Light Rain Fog/Mist FEW008 SCT037 OVC045 55.9 55 97% 29.82 1010.2
02 15:51 N 9 4.00 Light Rain Fog/Mist FEW006 BKN028 OVC037 57 55.9 96% 29.82 1010.3
02 10:51 N 10 6.00 Overcast with Haze FEW043 OVC100 59 54 83% 29.87 1011.9
02 07:51 N 8 6.00 Fog/Mist BKN005 BKN016 OVC075 55.9 55 57.9 55.9 97% 29.88 1012.0
02 06:51 N 7 5.00 Light Rain Fog/Mist OVC080 55.9 55 97% 29.85 1011.2
02 05:51 NW 7 7.00 Light Rain OVC080 57 55.9 96% 29.86 1011.3
02 03:51 Calm 8.00 Light Rain OVC100 57 55 93% 29.85 1011.1
02 02:51 NE 3 9.00 Overcast BKN030 BKN050 OVC080 57 53.1 87% 29.86 1011.4
02 01:51 Calm 9.00 Overcast FEW028 OVC110 57 53.1 60.1 55.9 87% 29.87 1011.8
02 00:51 N 5 9.00 Mostly Cloudy BKN100 57 51.1 81% 29.89 1012.5
01 20:51 NE 5 9.00 Fair CLR 59 48 67% 29.92 1013.5
Date Time (edt) Wind (mph) Vis. (mi.) Weather Sky Cond. Air Dwpt Max. Min. Relative Humidity Wind Chill (°F) Heat Index (°F) altimeter (in) sea level (mb) 1 hr 3 hr 6 hr
6 hour
Temperature (ºF) Pressure Precipitation (in)